Time;durP1;ratioP1;P1;durP2;ratioP2;P2;SDS_P1;SDS_P2;PMS_P1;PMS_P2;Temp;Humidity;BMP_temperature;BMP_pressure;BME280_temperature;BME280_humidity;BME280_pressure;Samples;Min_cycle;Max_cycle;Signal;HPM_P1;HPM_P2
2022/02/21 00:00:28;;;;;;;1.13;0.90;;;8.90;99.90;;;;;;2103611;28;20107;-72
2022/02/21 00:01:29;;;;;;;2.78;1.00;;;8.90;99.90;;;;;;2107474;28;20481;-72
2022/02/21 00:02:30;;;;;;;2.70;0.95;;;8.90;99.90;;;;;;2108958;28;20070;-72
2022/02/21 00:03:30;;;;;;;4.05;1.08;;;8.90;99.90;;;;;;2103469;28;20035;-72
2022/02/21 00:04:31;;;;;;;1.55;1.10;;;8.90;99.90;;;;;;2100180;28;20391;-72
2022/02/21 00:05:31;;;;;;;2.70;0.98;;;8.90;99.90;;;;;;2104161;28;20051;-72
2022/02/21 00:06:32;;;;;;;2.35;1.00;;;8.80;99.90;;;;;;2102182;28;20024;-73
2022/02/21 00:07:32;;;;;;;2.78;1.08;;;8.80;99.90;;;;;;2106922;28;20451;-72
2022/02/21 00:08:33;;;;;;;1.48;0.98;;;8.80;99.90;;;;;;2109764;28;20498;-72
2022/02/21 00:09:33;;;;;;;1.70;0.90;;;8.80;99.90;;;;;;2108644;28;20016;-72
2022/02/21 00:10:34;;;;;;;4.28;1.17;;;8.80;99.90;;;;;;2108764;28;20090;-72
2022/02/21 00:11:34;;;;;;;4.95;1.10;;;8.80;99.90;;;;;;2106304;28;20105;-72
2022/02/21 00:12:35;;;;;;;4.68;1.00;;;8.80;99.90;;;;;;2104894;28;20505;-72
2022/02/21 00:13:35;;;;;;;3.63;1.27;;;8.80;99.90;;;;;;2105993;28;20012;-73
2022/02/21 00:14:39;;;;;;;4.60;1.20;;;8.80;99.90;;;;;;2101190;28;20086;-72
2022/02/21 00:15:39;;;;;;;3.85;1.13;;;8.70;99.90;;;;;;2100839;28;20428;-72
2022/02/21 00:16:40;;;;;;;7.45;1.65;;;8.70;99.90;;;;;;2107377;28;20029;-72
2022/02/21 00:17:41;;;;;;;3.08;1.50;;;8.70;99.90;;;;;;2105886;28;20016;-72
2022/02/21 00:18:41;;;;;;;4.80;1.30;;;8.70;99.90;;;;;;2105628;28;20024;-72
2022/02/21 00:19:42;;;;;;;7.45;2.00;;;8.70;99.90;;;;;;2105067;28;20020;-72
2022/02/21 00:20:43;;;;;;;7.00;1.58;;;8.70;99.90;;;;;;2104228;28;20075;-72
2022/02/21 00:21:43;;;;;;;5.70;1.85;;;8.70;99.90;;;;;;2104222;28;20492;-73
2022/02/21 00:22:44;;;;;;;5.95;1.70;;;8.70;99.90;;;;;;2103763;28;20031;-72
2022/02/21 00:23:44;;;;;;;5.38;1.55;;;8.60;99.90;;;;;;2107924;28;20111;-72
2022/02/21 00:24:45;;;;;;;6.28;1.75;;;8.60;99.90;;;;;;2098876;28;20093;-72
2022/02/21 00:25:46;;;;;;;7.25;1.80;;;8.60;99.90;;;;;;2103926;28;20503;-72
2022/02/21 00:26:46;;;;;;;4.57;2.03;;;8.60;99.90;;;;;;2104241;28;20024;-72
2022/02/21 00:27:47;;;;;;;7.35;2.00;;;8.60;99.90;;;;;;2104911;28;20400;-72
2022/02/21 00:28:48;;;;;;;7.57;2.03;;;8.60;99.90;;;;;;2107265;28;20351;-72
2022/02/21 00:29:49;;;;;;;4.22;1.58;;;8.60;99.90;;;;;;2103155;28;20058;-72
2022/02/21 00:30:49;;;;;;;6.57;1.48;;;8.60;99.90;;;;;;2105675;28;20157;-72
2022/02/21 00:31:50;;;;;;;3.55;1.95;;;8.60;99.90;;;;;;2108544;28;20027;-72
2022/02/21 00:32:51;;;;;;;5.22;2.28;;;8.60;99.90;;;;;;2107104;28;20388;-72
2022/02/21 00:33:51;;;;;;;4.22;1.70;;;8.60;99.90;;;;;;2107190;28;20035;-72
2022/02/21 00:34:52;;;;;;;2.53;1.38;;;8.60;99.90;;;;;;2107442;28;20032;-72
2022/02/21 00:35:53;;;;;;;4.53;1.73;;;8.60;99.90;;;;;;2107217;28;20027;-72
2022/02/21 00:36:53;;;;;;;4.43;1.60;;;8.60;99.90;;;;;;2107201;28;20051;-71
2022/02/21 00:37:54;;;;;;;4.65;1.52;;;8.60;99.90;;;;;;2103210;28;20024;-72
2022/02/21 00:38:54;;;;;;;5.13;1.52;;;8.60;99.90;;;;;;2101251;28;20024;-72
2022/02/21 00:39:55;;;;;;;4.18;1.85;;;8.60;99.90;;;;;;2099984;28;20060;-72
2022/02/21 00:40:55;;;;;;;8.80;2.20;;;8.60;99.90;;;;;;2101660;28;20016;-72
2022/02/21 00:41:56;;;;;;;5.20;1.90;;;8.60;99.90;;;;;;2103452;28;20515;-72
2022/02/21 00:42:56;;;;;;;7.47;2.13;;;8.60;99.90;;;;;;2103938;28;20031;-72
2022/02/21 00:43:57;;;;;;;6.45;1.73;;;8.60;99.90;;;;;;2103439;28;20036;-72
2022/02/21 00:44:59;;;;;;;5.85;1.75;;;8.60;99.90;;;;;;2105462;28;20035;-72
2022/02/21 00:45:59;;;;;;;7.80;1.70;;;8.60;99.90;;;;;;2102384;28;20043;-72
2022/02/21 00:47:00;;;;;;;9.48;2.00;;;8.60;99.90;;;;;;2105218;28;20954;-72
2022/02/21 00:48:01;;;;;;;5.57;1.75;;;8.60;99.90;;;;;;2106572;28;20031;-72
2022/02/21 00:49:03;;;;;;;6.32;1.75;;;8.60;99.90;;;;;;2105016;28;20059;-72
2022/02/21 00:50:04;;;;;;;8.30;2.28;;;8.60;99.90;;;;;;2107164;28;20028;-72
2022/02/21 00:51:05;;;;;;;6.75;1.90;;;8.60;99.90;;;;;;2104832;28;20024;-72
2022/02/21 00:52:06;;;;;;;9.88;2.40;;;8.60;99.90;;;;;;2107163;28;20040;-72
2022/02/21 00:53:06;;;;;;;7.75;2.22;;;8.60;99.90;;;;;;2106009;28;20020;-71
2022/02/21 00:54:07;;;;;;;8.23;2.03;;;8.60;99.90;;;;;;2106254;28;20062;-72
2022/02/21 00:55:08;;;;;;;8.48;2.47;;;8.60;99.90;;;;;;2103994;28;20089;-72
2022/02/21 00:56:08;;;;;;;9.30;2.33;;;8.60;99.90;;;;;;2104955;28;20416;-72
2022/02/21 00:57:09;;;;;;;6.28;2.08;;;8.60;99.90;;;;;;2108806;28;20016;-72
2022/02/21 00:58:09;;;;;;;5.65;1.88;;;8.60;99.90;;;;;;2107719;28;21587;-72
2022/02/21 00:59:10;;;;;;;5.53;1.73;;;8.60;99.90;;;;;;2106170;28;20035;-72
2022/02/21 01:00:11;;;;;;;8.07;2.08;;;8.60;99.90;;;;;;2102082;28;20089;-71
2022/02/21 01:01:11;;;;;;;10.82;2.67;;;8.60;99.90;;;;;;2103491;28;20036;-72
2022/02/21 01:02:12;;;;;;;8.30;2.03;;;8.60;99.90;;;;;;2104070;28;20016;-72
2022/02/21 01:03:13;;;;;;;6.45;2.15;;;8.60;99.90;;;;;;2103244;28;20034;-71
2022/02/21 01:04:15;;;;;;;10.35;2.10;;;8.60;99.90;;;;;;2106588;28;20016;-72
2022/02/21 01:05:16;;;;;;;6.78;2.80;;;8.60;99.90;;;;;;2103677;28;20115;-72
2022/02/21 01:06:17;;;;;;;9.02;2.60;;;8.60;99.90;;;;;;2106485;28;20468;-71
2022/02/21 01:07:17;;;;;;;9.77;2.50;;;8.60;99.90;;;;;;2105836;28;20032;-72
2022/02/21 01:08:18;;;;;;;6.07;2.28;;;8.60;99.90;;;;;;2106114;28;20063;-72
2022/02/21 01:09:18;;;;;;;7.80;2.75;;;8.60;99.90;;;;;;2102403;28;20036;-72
2022/02/21 01:10:19;;;;;;;12.68;2.47;;;8.60;99.90;;;;;;2104623;28;20609;-72
2022/02/21 01:11:21;;;;;;;7.93;2.33;;;8.60;99.90;;;;;;2101186;28;20024;-72
2022/02/21 01:12:21;;;;;;;8.13;2.72;;;8.60;99.90;;;;;;2107272;28;20036;-72
2022/02/21 01:13:22;;;;;;;10.60;2.33;;;8.60;99.90;;;;;;2103128;28;20030;-72
2022/02/21 01:14:22;;;;;;;11.00;2.63;;;8.60;99.90;;;;;;2098946;28;20093;-72
2022/02/21 01:15:23;;;;;;;8.85;2.85;;;8.60;99.90;;;;;;2106453;28;20017;-72
2022/02/21 01:16:24;;;;;;;11.60;2.15;;;8.60;99.90;;;;;;2104066;28;20500;-72
2022/02/21 01:17:27;;;;;;;18.95;2.83;;;8.60;99.90;;;;;;2098398;28;20079;-72
2022/02/21 01:18:27;;;;;;;4.90;1.73;;;8.60;99.90;;;;;;2103506;28;20016;-72
2022/02/21 01:19:28;;;;;;;8.50;2.50;;;8.60;99.90;;;;;;2101582;28;20032;-72
2022/02/21 01:20:28;;;;;;;7.85;2.78;;;8.60;99.90;;;;;;2101230;28;20033;-71
2022/02/21 01:21:29;;;;;;;11.38;2.63;;;8.60;99.90;;;;;;2102758;28;20021;-71
2022/02/21 01:22:30;;;;;;;8.20;2.20;;;8.60;99.90;;;;;;2107786;28;20031;-72
2022/02/21 01:23:31;;;;;;;9.77;2.47;;;8.60;99.90;;;;;;2107125;28;20016;-72
2022/02/21 01:24:32;;;;;;;11.77;2.83;;;8.60;99.90;;;;;;2103449;28;20119;-72
2022/02/21 01:25:32;;;;;;;9.48;2.50;;;8.60;99.90;;;;;;2104596;28;20020;-72
2022/02/21 01:26:33;;;;;;;9.73;3.00;;;8.60;99.90;;;;;;2102822;28;20162;-71
2022/02/21 01:27:34;;;;;;;9.45;2.47;;;8.60;99.90;;;;;;2102888;28;20074;-72
2022/02/21 01:28:35;;;;;;;12.75;2.88;;;8.60;99.90;;;;;;2108126;28;20432;-71
2022/02/21 01:29:36;;;;;;;10.48;2.38;;;8.60;99.90;;;;;;2106107;28;20423;-71
2022/02/21 01:30:37;;;;;;;9.77;2.70;;;8.50;99.90;;;;;;2105343;28;20021;-72
2022/02/21 01:31:37;;;;;;;11.90;3.28;;;8.50;99.90;;;;;;2106577;28;20035;-71
2022/02/21 01:32:38;;;;;;;11.23;3.05;;;8.50;99.90;;;;;;2102903;28;20044;-72
2022/02/21 01:33:39;;;;;;;13.38;2.45;;;8.50;99.90;;;;;;2105043;28;20118;-72
2022/02/21 01:34:40;;;;;;;12.85;2.58;;;8.50;99.90;;;;;;2106538;28;20020;-72
2022/02/21 01:35:40;;;;;;;12.80;3.08;;;8.50;99.90;;;;;;2108674;28;20028;-72
2022/02/21 01:36:41;;;;;;;10.80;2.78;;;8.50;99.90;;;;;;2104502;28;20078;-72
2022/02/21 01:37:41;;;;;;;11.45;2.92;;;8.50;99.90;;;;;;2104355;28;20109;-72
2022/02/21 01:38:42;;;;;;;7.97;2.67;;;8.40;99.90;;;;;;2101357;28;20085;-72
2022/02/21 01:39:42;;;;;;;10.40;3.33;;;8.40;99.90;;;;;;2106535;28;20016;-71
2022/02/21 01:40:43;;;;;;;12.05;3.15;;;8.40;99.90;;;;;;2104216;28;20023;-72
2022/02/21 01:41:43;;;;;;;11.55;3.22;;;8.40;99.90;;;;;;2102161;28;20028;-72
2022/02/21 01:42:44;;;;;;;11.30;2.85;;;8.40;99.90;;;;;;2103149;28;20386;-71
2022/02/21 01:43:47;;;;;;;11.95;2.90;;;8.40;99.90;;;;;;2104802;28;20087;-71
2022/02/21 01:44:48;;;;;;;9.48;2.63;;;8.40;99.90;;;;;;2105230;28;20020;-71
2022/02/21 01:45:49;;;;;;;11.95;3.35;;;8.40;99.90;;;;;;2105397;28;20421;-72
2022/02/21 01:46:49;;;;;;;10.07;2.92;;;8.40;99.90;;;;;;2106364;28;20024;-71
2022/02/21 01:47:50;;;;;;;14.45;3.67;;;8.40;99.90;;;;;;2105573;28;20054;-71
2022/02/21 01:48:50;;;;;;;11.60;2.95;;;8.40;99.90;;;;;;2105682;28;20515;-71
2022/02/21 01:49:51;;;;;;;10.55;2.60;;;8.40;99.90;;;;;;2105551;28;20032;-72
2022/02/21 01:50:52;;;;;;;11.85;3.10;;;8.40;99.90;;;;;;2102169;28;20478;-71
2022/02/21 01:51:52;;;;;;;14.55;3.03;;;8.30;99.90;;;;;;2108294;28;20111;-72
2022/02/21 01:52:53;;;;;;;11.38;3.08;;;8.30;99.90;;;;;;2108248;28;20016;-71
2022/02/21 01:53:55;;;;;;;13.93;3.08;;;8.30;99.90;;;;;;2105973;28;20039;-71
2022/02/21 01:54:57;;;;;;;11.98;3.05;;;8.30;99.90;;;;;;2106993;28;20034;-71
2022/02/21 01:55:58;;;;;;;11.90;2.90;;;8.30;99.90;;;;;;2103562;28;20020;-71
2022/02/21 01:56:59;;;;;;;9.90;2.65;;;8.20;99.90;;;;;;2105883;28;20476;-71
2022/02/21 01:58:00;;;;;;;15.27;3.58;;;8.30;99.90;;;;;;2104965;28;20106;-72
2022/02/21 01:59:01;;;;;;;13.32;3.85;;;8.20;99.90;;;;;;2106010;28;20021;-71
2022/02/21 02:00:02;;;;;;;14.43;3.20;;;8.20;99.90;;;;;;2103684;28;20030;-72
2022/02/21 02:01:02;;;;;;;8.40;2.70;;;8.20;99.90;;;;;;2105516;28;20028;-72
2022/02/21 02:02:04;;;;;;;8.45;2.85;;;8.20;99.90;;;;;;2107498;28;20095;-72
2022/02/21 02:03:05;;;;;;;13.13;2.80;;;8.20;99.90;;;;;;2106633;28;20464;-71
2022/02/21 02:04:06;;;;;;;8.55;2.78;;;8.20;99.90;;;;;;2103033;28;20365;-72
2022/02/21 02:05:06;;;;;;;11.73;2.97;;;8.20;99.90;;;;;;2104814;28;20062;-72
2022/02/21 02:06:09;;;;;;;13.15;3.03;;;8.20;99.90;;;;;;2103504;28;20027;-72
2022/02/21 02:07:11;;;;;;;9.00;2.70;;;8.20;99.90;;;;;;2105899;28;20111;-72
2022/02/21 02:08:12;;;;;;;12.75;3.55;;;8.20;99.90;;;;;;2108019;28;20036;-71
2022/02/21 02:09:13;;;;;;;14.35;2.42;;;8.10;99.90;;;;;;2106283;28;20487;-71
2022/02/21 02:10:14;;;;;;;17.02;3.45;;;8.10;99.90;;;;;;2105262;28;20383;-72
2022/02/21 02:11:15;;;;;;;10.43;3.03;;;8.10;99.90;;;;;;2104332;28;20423;-71
2022/02/21 02:12:24;;;;;;;11.73;2.42;;;8.10;99.90;;;;;;2105281;28;20063;-71
2022/02/21 02:13:25;;;;;;;12.68;2.95;;;8.10;99.90;;;;;;2103307;28;20098;-72
2022/02/21 02:14:39;;;;;;;11.88;2.80;;;8.10;99.90;;;;;;2104534;28;20130;-71
2022/02/21 02:15:39;;;;;;;11.90;3.13;;;8.10;99.90;;;;;;2104595;28;20107;-71
2022/02/21 02:16:40;;;;;;;10.77;3.08;;;8.10;99.90;;;;;;2105199;28;20021;-72
2022/02/21 02:17:41;;;;;;;10.23;2.40;;;8.10;99.90;;;;;;2102797;28;20104;-71
2022/02/21 02:18:42;;;;;;;11.35;2.72;;;8.00;99.90;;;;;;2101462;28;20035;-71
2022/02/21 02:19:44;;;;;;;11.30;3.10;;;8.00;99.90;;;;;;2102428;28;20027;-71
2022/02/21 02:20:45;;;;;;;10.73;2.95;;;8.00;99.90;;;;;;2105005;28;20034;-71
2022/02/21 02:21:52;;;;;;;9.45;3.35;;;8.00;99.90;;;;;;2104241;28;20040;-71
2022/02/21 02:22:52;;;;;;;13.13;2.75;;;8.00;99.90;;;;;;2104021;28;20043;-71
2022/02/21 02:23:54;;;;;;;13.48;2.90;;;8.00;99.90;;;;;;2104753;28;20060;-71
2022/02/21 02:24:55;;;;;;;15.77;3.85;;;8.00;99.90;;;;;;2102741;28;20474;-71
2022/02/21 02:25:55;;;;;;;9.27;2.15;;;8.00;99.90;;;;;;2100838;28;20598;-71
2022/02/21 02:26:56;;;;;;;15.63;2.90;;;8.00;99.90;;;;;;2104676;28;20059;-71
2022/02/21 02:27:56;;;;;;;14.57;3.15;;;7.90;99.90;;;;;;2105438;28;20030;-72
2022/02/21 02:28:57;;;;;;;16.02;3.25;;;7.90;99.90;;;;;;2105722;28;20483;-71
2022/02/21 02:30:01;;;;;;;11.38;3.65;;;7.90;99.90;;;;;;2105168;28;20039;-71
2022/02/21 02:31:02;;;;;;;8.57;2.53;;;7.90;99.90;;;;;;2107164;28;20019;-71
2022/02/21 02:32:04;;;;;;;11.52;3.05;;;7.90;99.90;;;;;;2107166;28;20088;-71
2022/02/21 02:33:05;;;;;;;12.68;3.05;;;7.90;99.90;;;;;;2106491;28;20039;-71
2022/02/21 02:34:05;;;;;;;11.68;3.30;;;7.90;99.90;;;;;;2106923;28;20038;-71
2022/02/21 02:35:06;;;;;;;10.05;2.63;;;7.90;99.90;;;;;;2098900;28;20107;-72
2022/02/21 02:36:07;;;;;;;9.98;3.15;;;7.90;99.90;;;;;;2102486;28;20462;-71
2022/02/21 02:37:08;;;;;;;14.23;3.83;;;7.80;99.90;;;;;;2105263;28;20028;-71
2022/02/21 02:38:09;;;;;;;13.40;4.18;;;7.80;99.90;;;;;;2102892;28;20103;-72
2022/02/21 02:39:10;;;;;;;16.20;3.90;;;7.90;99.90;;;;;;2106739;28;20032;-72
2022/02/21 02:40:11;;;;;;;15.30;3.25;;;7.90;99.90;;;;;;2109467;28;20061;-72
2022/02/21 02:41:12;;;;;;;17.85;3.85;;;7.90;99.90;;;;;;2107067;28;20028;-72
2022/02/21 02:42:13;;;;;;;19.10;3.65;;;7.90;99.90;;;;;;2107530;28;20040;-71
2022/02/21 02:43:14;;;;;;;16.77;3.72;;;7.90;99.90;;;;;;2105786;28;20020;-72
2022/02/21 02:44:14;;;;;;;14.73;3.88;;;7.80;99.90;;;;;;2102244;28;20069;-72
2022/02/21 02:45:15;;;;;;;16.63;4.45;;;7.80;99.90;;;;;;2104459;28;20054;-71
2022/02/21 02:46:15;;;;;;;16.85;4.03;;;7.80;99.90;;;;;;2102046;28;20025;-72
2022/02/21 02:47:16;;;;;;;16.35;4.22;;;7.80;99.90;;;;;;2108155;28;20035;-72
2022/02/21 02:48:17;;;;;;;15.52;3.58;;;7.80;99.90;;;;;;2106263;28;20370;-72
2022/02/21 02:49:18;;;;;;;13.02;3.67;;;7.80;99.90;;;;;;2106700;28;20036;-72
2022/02/21 02:50:18;;;;;;;16.98;3.70;;;7.80;99.90;;;;;;2104460;28;20020;-72
2022/02/21 02:51:19;;;;;;;13.00;3.30;;;7.80;99.90;;;;;;2106453;28;20056;-72
2022/02/21 02:52:19;;;;;;;15.18;3.83;;;7.80;99.90;;;;;;2106525;28;20024;-71
2022/02/21 02:53:20;;;;;;;15.48;3.42;;;7.90;99.90;;;;;;2103600;28;20389;-72
2022/02/21 02:54:20;;;;;;;12.63;3.55;;;7.80;99.90;;;;;;2108508;28;20065;-72
2022/02/21 02:55:21;;;;;;;6.80;2.30;;;7.80;99.90;;;;;;2108880;28;20086;-72
2022/02/21 02:56:22;;;;;;;9.30;2.50;;;7.80;99.90;;;;;;2105833;28;20020;-72
2022/02/21 02:57:22;;;;;;;8.25;2.13;;;7.80;99.90;;;;;;2108862;28;20107;-71
2022/02/21 02:58:23;;;;;;;9.25;2.53;;;7.70;99.90;;;;;;2106571;28;20035;-72
2022/02/21 02:59:25;;;;;;;10.85;2.55;;;7.70;99.90;;;;;;2101111;28;20032;-72
2022/02/21 03:00:25;;;;;;;9.90;3.13;;;7.60;99.90;;;;;;2105381;28;20028;-71
2022/02/21 03:01:26;;;;;;;14.63;3.50;;;7.60;99.90;;;;;;2097841;28;20060;-72
2022/02/21 03:02:26;;;;;;;15.25;4.00;;;7.60;99.90;;;;;;2108531;28;20028;-72
2022/02/21 03:03:27;;;;;;;16.60;3.78;;;7.60;99.90;;;;;;2108357;28;20021;-72
2022/02/21 03:04:27;;;;;;;15.20;3.67;;;7.60;99.90;;;;;;2105311;28;20434;-72
2022/02/21 03:05:28;;;;;;;20.23;3.72;;;7.50;99.90;;;;;;2108175;28;20042;-72
2022/02/21 03:06:29;;;;;;;15.50;3.80;;;7.50;99.90;;;;;;2104771;28;20041;-72
2022/02/21 03:07:30;;;;;;;12.80;3.45;;;7.50;99.90;;;;;;2107756;28;20090;-72
2022/02/21 03:08:31;;;;;;;19.13;4.65;;;7.50;99.90;;;;;;2104036;28;20039;-71
2022/02/21 03:09:32;;;;;;;13.73;3.42;;;7.50;99.90;;;;;;2103299;28;20036;-72
2022/02/21 03:10:32;;;;;;;14.35;3.72;;;7.60;99.90;;;;;;2110306;28;20015;-72
2022/02/21 03:11:33;;;;;;;13.90;4.05;;;7.50;99.90;;;;;;2108083;28;20433;-72
2022/02/21 03:12:33;;;;;;;20.85;4.88;;;7.50;99.90;;;;;;2106003;28;20016;-72
2022/02/21 03:13:34;;;;;;;10.43;3.15;;;7.60;99.90;;;;;;2108653;28;20035;-71
2022/02/21 03:14:35;;;;;;;7.55;2.42;;;7.60;99.90;;;;;;2105203;28;20021;-72
2022/02/21 03:15:35;;;;;;;15.88;3.55;;;7.50;99.90;;;;;;2106855;28;20012;-72
2022/02/21 03:16:36;;;;;;;10.82;2.80;;;7.50;99.90;;;;;;2106479;28;20491;-72
2022/02/21 03:17:36;;;;;;;9.85;2.85;;;7.50;99.90;;;;;;2102338;28;20024;-72
2022/02/21 03:18:37;;;;;;;7.45;2.55;;;7.50;99.90;;;;;;2105292;28;20468;-72
2022/02/21 03:19:37;;;;;;;9.80;3.03;;;7.50;99.90;;;;;;2104980;28;20657;-72
2022/02/21 03:20:38;;;;;;;11.77;2.95;;;7.50;99.90;;;;;;2102699;28;20012;-72
2022/02/21 03:21:38;;;;;;;10.25;2.45;;;7.40;99.90;;;;;;2103500;28;20027;-72
2022/02/21 03:22:39;;;;;;;10.02;2.53;;;7.40;99.90;;;;;;2104979;28;20100;-72
2022/02/21 03:23:39;;;;;;;9.85;2.75;;;7.40;99.90;;;;;;2105078;28;20024;-72
2022/02/21 03:24:40;;;;;;;8.82;2.50;;;7.40;99.90;;;;;;2106163;28;20038;-72
2022/02/21 03:25:40;;;;;;;10.18;2.80;;;7.30;99.90;;;;;;2105079;28;20016;-72
2022/02/21 03:26:41;;;;;;;8.65;3.13;;;7.30;99.90;;;;;;2107965;28;20622;-71
2022/02/21 03:27:43;;;;;;;11.90;2.75;;;7.30;99.90;;;;;;2109372;28;20038;-72
2022/02/21 03:28:44;;;;;;;7.28;2.05;;;7.30;99.90;;;;;;2108395;28;20417;-72
2022/02/21 03:29:44;;;;;;;11.23;3.20;;;7.30;99.90;;;;;;2107448;28;20040;-72
2022/02/21 03:30:46;;;;;;;7.68;2.42;;;7.20;99.90;;;;;;2107509;28;20034;-71
2022/02/21 03:31:46;;;;;;;10.80;2.63;;;7.20;99.90;;;;;;2105569;28;20369;-72
2022/02/21 03:32:47;;;;;;;13.10;2.65;;;7.20;99.90;;;;;;2103834;28;20144;-71
2022/02/21 03:33:48;;;;;;;7.18;2.40;;;7.10;99.90;;;;;;2104489;28;20019;-72
2022/02/21 03:34:49;;;;;;;8.43;2.33;;;7.10;99.90;;;;;;2108523;28;20088;-72
2022/02/21 03:35:50;;;;;;;10.45;2.58;;;7.10;99.90;;;;;;2107959;28;20448;-71
2022/02/21 03:36:50;;;;;;;9.02;2.60;;;7.10;99.90;;;;;;2106475;28;20027;-71
2022/02/21 03:37:51;;;;;;;11.82;3.28;;;7.10;99.90;;;;;;2105018;28;20032;-71
2022/02/21 03:38:51;;;;;;;9.85;2.53;;;7.10;99.90;;;;;;2103954;28;20036;-71
2022/02/21 03:39:52;;;;;;;10.88;2.88;;;7.10;99.90;;;;;;2106068;28;20369;-71
2022/02/21 03:40:52;;;;;;;15.65;3.47;;;7.10;99.90;;;;;;2106038;28;20020;-71
2022/02/21 03:41:53;;;;;;;12.55;3.03;;;7.10;99.90;;;;;;2109620;28;20143;-71
2022/02/21 03:42:53;;;;;;;13.70;3.08;;;7.10;99.90;;;;;;2105143;28;20082;-71
2022/02/21 03:43:54;;;;;;;12.25;3.05;;;7.00;99.90;;;;;;2103949;28;20028;-71
2022/02/21 03:44:54;;;;;;;10.68;3.08;;;7.00;99.90;;;;;;2105129;28;20089;-71
2022/02/21 03:45:55;;;;;;;8.32;2.92;;;7.00;99.90;;;;;;2104368;28;20387;-71
2022/02/21 03:46:55;;;;;;;11.93;3.13;;;7.00;99.90;;;;;;2106333;28;20035;-71
2022/02/21 03:47:56;;;;;;;9.50;2.92;;;7.10;99.90;;;;;;2106492;28;20093;-71
2022/02/21 03:48:57;;;;;;;11.40;3.28;;;7.10;99.90;;;;;;2104998;28;20032;-71
2022/02/21 03:49:57;;;;;;;14.07;2.72;;;7.00;99.90;;;;;;2109282;28;20027;-71
2022/02/21 03:50:58;;;;;;;13.40;3.33;;;7.00;99.90;;;;;;2105745;28;20388;-71
2022/02/21 03:51:59;;;;;;;11.27;3.22;;;7.00;99.90;;;;;;2106707;28;20023;-71
2022/02/21 03:52:59;;;;;;;14.45;3.88;;;7.10;99.90;;;;;;2105271;28;20028;-71
2022/02/21 03:54:00;;;;;;;15.75;3.42;;;7.00;99.90;;;;;;2104692;28;20096;-71
2022/02/21 03:55:01;;;;;;;11.38;3.35;;;7.10;99.90;;;;;;2106118;28;20103;-72
2022/02/21 03:56:01;;;;;;;17.92;3.35;;;7.00;99.90;;;;;;2105536;28;20070;-72
2022/02/21 03:57:02;;;;;;;10.25;2.72;;;7.00;99.90;;;;;;2102340;28;20028;-72
2022/02/21 03:58:03;;;;;;;9.55;2.50;;;7.00;99.90;;;;;;2109712;28;20032;-71
2022/02/21 03:59:04;;;;;;;8.90;2.45;;;7.00;99.90;;;;;;2105898;28;20036;-72
2022/02/21 04:00:07;;;;;;;9.02;2.80;;;7.00;99.90;;;;;;2102510;28;20025;-72
2022/02/21 04:01:08;;;;;;;9.43;1.98;;;7.00;99.90;;;;;;2105899;28;20023;-72
2022/02/21 04:02:08;;;;;;;7.72;2.20;;;6.90;99.90;;;;;;2104371;28;20028;-72
2022/02/21 04:03:09;;;;;;;10.23;2.58;;;6.90;99.90;;;;;;2103589;28;20177;-72
2022/02/21 04:04:09;;;;;;;11.50;2.50;;;6.90;99.90;;;;;;2103191;28;20043;-72
2022/02/21 04:05:10;;;;;;;9.88;2.38;;;6.90;99.90;;;;;;2104482;28;20095;-72
2022/02/21 04:06:10;;;;;;;11.25;2.28;;;6.90;99.90;;;;;;2105736;28;20078;-72
2022/02/21 04:07:11;;;;;;;14.15;2.78;;;6.80;99.90;;;;;;2102922;28;20060;-72
2022/02/21 04:08:12;;;;;;;8.73;2.67;;;6.80;99.90;;;;;;2106001;28;20056;-72
2022/02/21 04:09:12;;;;;;;12.52;2.70;;;6.80;99.90;;;;;;2106257;28;20039;-72
2022/02/21 04:10:18;;;;;;;18.42;3.67;;;6.80;99.90;;;;;;2104619;28;20058;-72
2022/02/21 04:11:18;;;;;;;11.32;2.97;;;6.80;99.90;;;;;;2103380;28;20028;-72
2022/02/21 04:12:19;;;;;;;11.27;2.85;;;6.70;99.90;;;;;;2105868;28;20542;-72
2022/02/21 04:13:19;;;;;;;12.43;2.92;;;6.70;99.90;;;;;;2106588;28;20120;-71
2022/02/21 04:14:20;;;;;;;13.98;3.10;;;6.70;99.90;;;;;;2105635;28;20032;-72
2022/02/21 04:15:20;;;;;;;8.23;2.55;;;6.70;99.90;;;;;;2103922;28;20050;-71
2022/02/21 04:16:21;;;;;;;14.30;3.00;;;6.70;99.90;;;;;;2104339;28;20127;-71
2022/02/21 04:17:22;;;;;;;11.80;3.00;;;6.70;99.90;;;;;;2095152;28;20083;-72
2022/02/21 04:18:22;;;;;;;12.02;3.00;;;6.70;99.90;;;;;;2104749;28;20035;-72
2022/02/21 04:19:24;;;;;;;12.48;2.67;;;6.70;99.90;;;;;;2102571;28;20027;-72
2022/02/21 04:20:30;;;;;;;8.68;3.45;;;6.70;99.90;;;;;;2103667;28;20130;-72
2022/02/21 04:21:31;;;;;;;7.60;3.20;;;6.60;99.90;;;;;;2102603;28;20028;-71
2022/02/21 04:22:31;;;;;;;10.40;3.20;;;6.70;99.90;;;;;;2104711;28;20036;-72
2022/02/21 04:23:32;;;;;;;12.35;3.45;;;6.60;99.90;;;;;;2105690;28;20034;-72
2022/02/21 04:24:32;;;;;;;16.42;3.22;;;6.60;99.90;;;;;;2103800;28;20029;-71
2022/02/21 04:25:33;;;;;;;12.43;3.17;;;6.60;99.90;;;;;;2104081;28;20036;-72
2022/02/21 04:26:33;;;;;;;9.35;3.00;;;6.60;99.90;;;;;;2104069;28;20577;-72
2022/02/21 04:27:45;;;;;;;16.98;3.92;;;6.60;99.90;;;;;;2099347;28;20025;-72
2022/02/21 04:28:46;;;;;;;10.27;3.38;;;6.60;99.90;;;;;;2107816;28;20020;-72
2022/02/21 04:29:46;;;;;;;11.95;3.00;;;6.60;99.90;;;;;;2105728;28;20030;-71
2022/02/21 04:30:47;;;;;;;12.45;3.28;;;6.60;99.90;;;;;;2104554;28;20031;-71
2022/02/21 04:31:47;;;;;;;13.68;3.70;;;6.60;99.90;;;;;;2106627;28;20094;-71
2022/02/21 04:32:49;;;;;;;12.93;3.00;;;6.60;99.90;;;;;;2103762;28;20520;-71
2022/02/21 04:33:49;;;;;;;10.10;3.05;;;6.70;99.90;;;;;;2103982;28;20383;-72
2022/02/21 04:34:50;;;;;;;15.32;4.07;;;6.70;99.90;;;;;;2103856;28;20036;-72
2022/02/21 04:35:51;;;;;;;8.68;2.80;;;6.70;99.90;;;;;;2105241;28;20078;-71
2022/02/21 04:36:51;;;;;;;11.85;3.47;;;6.70;99.90;;;;;;2100213;28;20043;-71
2022/02/21 04:37:53;;;;;;;13.60;3.83;;;6.70;99.90;;;;;;2103453;28;20035;-71
2022/02/21 04:38:53;;;;;;;14.25;3.53;;;6.70;99.90;;;;;;2101546;28;20016;-71
2022/02/21 04:39:54;;;;;;;12.65;3.45;;;6.80;99.90;;;;;;2108027;28;20012;-71
2022/02/21 04:40:54;;;;;;;14.48;4.05;;;6.80;99.90;;;;;;2102703;28;20554;-71
2022/02/21 04:41:55;;;;;;;9.55;3.10;;;6.80;99.90;;;;;;2104910;28;20028;-72
2022/02/21 04:42:57;;;;;;;14.70;4.07;;;6.80;99.90;;;;;;2112168;28;20547;-72
2022/02/21 04:43:58;;;;;;;12.13;3.33;;;6.80;99.90;;;;;;2109272;28;20407;-71
2022/02/21 04:44:59;;;;;;;15.73;3.55;;;6.80;99.90;;;;;;2105502;28;20036;-71
2022/02/21 04:46:00;;;;;;;17.70;3.95;;;6.80;99.90;;;;;;2105863;28;20050;-71
2022/02/21 04:47:00;;;;;;;11.90;3.65;;;6.80;99.90;;;;;;2108084;28;20040;-71
2022/02/21 04:48:01;;;;;;;13.52;3.72;;;6.80;99.90;;;;;;2107547;28;20036;-71
2022/02/21 04:49:02;;;;;;;16.73;3.78;;;6.80;99.90;;;;;;2107449;28;20074;-71
2022/02/21 04:50:06;;;;;;;11.57;3.13;;;6.80;99.90;;;;;;2106634;28;20028;-72
2022/02/21 04:51:06;;;;;;;11.30;4.05;;;6.80;99.90;;;;;;2102499;28;20024;-71
2022/02/21 04:52:07;;;;;;;13.48;2.80;;;6.80;99.90;;;;;;2101721;28;20051;-71
2022/02/21 04:53:08;;;;;;;12.48;3.28;;;6.80;99.90;;;;;;2109167;28;20038;-72
2022/02/21 04:54:08;;;;;;;12.10;3.17;;;6.80;99.90;;;;;;2107400;28;20545;-71
2022/02/21 04:55:12;;;;;;;15.05;3.80;;;6.80;99.90;;;;;;2106981;28;20461;-72
2022/02/21 04:56:12;;;;;;;12.93;3.33;;;6.80;99.90;;;;;;2102614;28;20025;-72
2022/02/21 04:57:13;;;;;;;16.00;3.58;;;6.70;99.90;;;;;;2105737;28;20048;-72
2022/02/21 04:58:14;;;;;;;12.00;2.90;;;6.80;99.90;;;;;;2105738;28;20027;-71
2022/02/21 04:59:14;;;;;;;14.00;4.07;;;6.70;99.90;;;;;;2105579;28;20036;-71
2022/02/21 05:00:16;;;;;;;11.80;2.63;;;6.70;99.90;;;;;;2098714;28;20435;-71
2022/02/21 05:01:16;;;;;;;12.25;3.53;;;6.70;99.90;;;;;;2108608;28;20476;-72
2022/02/21 05:02:17;;;;;;;10.73;2.95;;;6.70;99.90;;;;;;2105447;28;20769;-72
2022/02/21 05:03:17;;;;;;;14.93;3.55;;;6.70;99.90;;;;;;2104998;28;20084;-71
2022/02/21 05:04:18;;;;;;;12.65;4.03;;;6.70;99.90;;;;;;2103210;28;20054;-72
2022/02/21 05:05:18;;;;;;;11.68;3.05;;;6.60;99.90;;;;;;2100023;28;20385;-72
2022/02/21 05:06:19;;;;;;;11.68;3.22;;;6.60;99.90;;;;;;2105523;28;20036;-72
2022/02/21 05:07:20;;;;;;;11.82;2.70;;;6.60;99.90;;;;;;2106179;28;20073;-71
2022/02/21 05:08:20;;;;;;;10.05;2.67;;;6.60;99.90;;;;;;2102238;28;20032;-71
2022/02/21 05:09:21;;;;;;;12.30;3.42;;;6.60;99.90;;;;;;2113313;28;20026;-72
2022/02/21 05:10:22;;;;;;;10.15;3.38;;;6.50;99.90;;;;;;2108579;28;20027;-72
2022/02/21 05:11:22;;;;;;;9.10;2.78;;;6.50;99.90;;;;;;2101034;28;20420;-72
2022/02/21 05:12:23;;;;;;;13.43;3.47;;;6.40;99.90;;;;;;2105226;28;20032;-71
2022/02/21 05:13:23;;;;;;;11.95;2.75;;;6.40;99.90;;;;;;2106495;28;20032;-72
2022/02/21 05:14:24;;;;;;;9.00;2.92;;;6.30;99.90;;;;;;2098672;28;20032;-72
2022/02/21 05:15:25;;;;;;;12.63;3.47;;;6.30;99.90;;;;;;2102748;28;20503;-72
2022/02/21 05:16:26;;;;;;;9.43;2.53;;;6.30;99.90;;;;;;2102865;28;20548;-72
2022/02/21 05:17:26;;;;;;;10.10;3.10;;;6.20;99.90;;;;;;2108036;28;20051;-72
2022/02/21 05:18:27;;;;;;;13.45;2.80;;;6.20;99.90;;;;;;2105181;28;20027;-72